Time;durP1;ratioP1;P1;durP2;ratioP2;P2;SDS_P1;SDS_P2;PMS_P1;PMS_P2;Temp;Humidity;BMP_temperature;BMP_pressure;BME280_temperature;BME280_humidity;BME280_pressure;Samples;Min_cycle;Max_cycle;Signal;HPM_P1;HPM_P2
2021/11/22 15:33:30;;;;;;;;;;;5.00;98.70;;;;;;5062581;28;19925;-96
2021/11/22 15:35:55;;;;;;;;;;;4.90;99.90;;;;;;5059140;28;20327;-95
2021/11/22 15:38:21;;;;;;;;;;;4.90;99.90;;;;;;5041276;28;19913;-96
2021/11/22 15:40:46;;;;;;;;;;;5.00;99.90;;;;;;5053304;28;20270;-95
2021/11/22 15:43:12;;;;;;;;;;;5.10;99.90;;;;;;5035009;28;19952;-95
2021/11/22 15:45:37;;;;;;;;;;;5.10;99.90;;;;;;5052809;28;19938;-96
2021/11/22 15:50:41;;;;;;;;;;;5.30;99.90;;;;;;5841286;23;19925;-96
2021/11/22 15:55:48;;;;;;;;;;;5.40;99.90;;;;;;5489660;23;19925;-96
2021/11/22 15:58:29;;;;;;;;;;;;;;;;;;;;;
2021/11/22 16:03:32;;;;;;;;;;;5.40;99.90;;;;;;5869045;23;20243;-94
2021/11/22 16:05:58;;;;;;;;;;;5.50;99.90;;;;;;5064803;28;19920;-94
2021/11/22 16:08:23;;;;;;;;;;;5.50;99.90;;;;;;5038030;28;20412;-95
2021/11/22 16:10:49;;;;;;;;;;;5.50;99.90;;;;;;5031330;28;19910;-93
2021/11/22 16:13:15;;;;;;;;;;;5.50;99.90;;;;;;5043905;28;19952;-93
2021/11/22 16:15:40;;;;;;;;;;;5.50;99.90;;;;;;5043455;28;19949;-94
2021/11/22 16:18:06;;;;;;;;;;;5.50;99.90;;;;;;5048718;28;19913;-95
2021/11/22 16:20:31;;;;;;;;;;;5.50;99.90;;;;;;5047451;28;19909;-95
2021/11/22 16:22:57;;;;;;;;;;;5.50;99.90;;;;;;5040841;28;19917;-94
2021/11/22 16:25:23;;;;;;;;;;;5.50;99.90;;;;;;5046103;28;19917;-94
2021/11/22 16:27:48;;;;;;;;;;;5.50;99.90;;;;;;5030079;28;20357;-94
2021/11/22 16:30:14;;;;;;;;;;;5.50;99.90;;;;;;5030095;28;19917;-96
2021/11/22 16:32:40;;;;;;;;;;;5.50;99.90;;;;;;5033221;28;19917;-96
2021/11/22 16:35:06;;;;;;;;;;;5.50;99.90;;;;;;5044229;28;20281;-95
2021/11/22 16:37:32;;;;;;;;;;;5.50;99.90;;;;;;5049565;28;19909;-96
2021/11/22 16:39:58;;;;;;;;;;;5.50;99.90;;;;;;5040160;28;19914;-95
2021/11/22 16:45:26;;;;;;;;;;;5.50;99.60;;;;;;5028067;28;19968;-94
2021/11/22 16:47:52;;;;;;;;;;;5.50;99.40;;;;;;5032983;28;19910;-95
2021/11/22 16:50:18;;;;;;;;;;;5.40;99.30;;;;;;5046282;28;19921;-96
2021/11/22 16:53:01;;;;;;;;;;;5.40;99.20;;;;;;5027156;28;20024;-96
2021/11/22 16:55:28;;;;;;;;;;;5.40;98.10;;;;;;5025765;28;20358;-96
2021/11/22 16:57:54;;;;;;;;;;;5.40;96.20;;;;;;5025416;28;19921;-96
2021/11/22 17:00:20;;;;;;;;;;;5.40;97.10;;;;;;5021944;28;20023;-95
2021/11/22 17:02:46;;;;;;;;;;;5.40;97.70;;;;;;5043472;28;19940;-96
2021/11/22 17:05:12;;;;;;;;;;;5.40;97.80;;;;;;5033067;28;19921;-95
2021/11/22 17:07:38;;;;;;;;;;;5.30;97.70;;;;;;5046375;28;19909;-96
2021/11/22 17:10:13;;;;;;;;;;;5.30;98.00;;;;;;5047783;28;19917;-96
2021/11/22 17:12:40;;;;;;;;;;;5.30;97.70;;;;;;5048227;28;19999;-96
2021/11/22 17:58:22;;;;;;;;;;;5.10;97.80;;;;;;5619188;23;19930;-92
2021/11/22 18:00:47;;;;;;;;;;;5.10;97.90;;;;;;4973190;28;19922;-93
2021/11/22 18:03:53;;;;;;;;;;;5.10;98.00;;;;;;5028735;23;19983;-96
2021/11/22 18:06:23;;;;;;;;;;;5.10;98.00;;;;;;5016067;28;20012;-93
2021/11/22 18:08:49;;;;;;;;;;;5.10;98.10;;;;;;5027326;28;20008;-93
2021/11/22 18:11:15;;;;;;;;;;;5.00;98.30;;;;;;5026888;28;19968;-94
2021/11/22 18:13:40;;;;;;;;;;;5.00;98.00;;;;;;5008291;28;20008;-94
2021/11/22 18:16:06;;;;;;;;;;;5.00;98.10;;;;;;5010572;28;20388;-94
2021/11/22 18:18:32;;;;;;;;;;;4.90;98.10;;;;;;5014837;28;19937;-96
2021/11/22 18:31:46;;;;;;;;;;;4.80;98.30;;;;;;3653884;22;19972;-93
2021/11/22 18:34:11;;;;;;;;;;;4.70;98.30;;;;;;5021340;28;19913;-96
2021/11/22 18:36:39;;;;;;;;;;;4.70;98.40;;;;;;5027569;28;19959;-95
2021/11/22 18:42:08;;;;;;;;;;;4.70;98.50;;;;;;5145835;23;19932;-95
2021/11/22 18:44:33;;;;;;;;;;;4.60;98.50;;;;;;5022452;28;20437;-95
2021/11/22 18:46:59;;;;;;;;;;;4.60;98.60;;;;;;5037326;28;19917;-93
2021/11/22 18:49:25;;;;;;;;;;;4.60;98.60;;;;;;5014237;28;19920;-93
2021/11/22 18:51:51;;;;;;;;;;;4.60;98.60;;;;;;5086022;23;19937;-96
2021/11/22 19:09:46;;;;;;;;;;;4.50;98.70;;;;;;5208495;22;19994;-94
2021/11/22 19:12:14;;;;;;;;;;;4.50;98.70;;;;;;5076665;28;20018;-96
2021/11/22 19:14:41;;;;;;;;;;;4.50;98.70;;;;;;5093260;28;19943;-94
2021/11/22 19:17:07;;;;;;;;;;;4.50;98.70;;;;;;5071670;28;19917;-95
2021/11/22 19:19:33;;;;;;;;;;;4.40;98.70;;;;;;5069750;28;20340;-95
2021/11/22 19:22:00;;;;;;;;;;;4.40;98.60;;;;;;5064581;28;19927;-96
2021/11/22 19:24:26;;;;;;;;;;;4.40;99.00;;;;;;5063760;28;19946;-94
2021/11/22 19:26:52;;;;;;;;;;;4.40;98.70;;;;;;5064697;28;19912;-92
2021/11/22 19:29:19;;;;;;;;;;;4.30;98.70;;;;;;5062569;28;20466;-94
2021/11/22 19:31:46;;;;;;;;;;;4.30;98.70;;;;;;5066536;28;19912;-95
2021/11/22 19:34:26;;;;;;;;;;;4.20;98.70;;;;;;5083476;28;19892;-95
2021/11/22 19:37:01;;;;;;;;;;;4.20;98.80;;;;;;5075884;28;19912;-95
2021/11/22 19:39:27;;;;;;;;;;;4.10;98.80;;;;;;5087504;28;19916;-92
2021/11/22 19:42:00;;;;;;;;;;;4.00;98.80;;;;;;5062130;28;19916;-92
2021/11/22 19:44:25;;;;;;;;;;;4.00;98.90;;;;;;5079920;28;19912;-92
2021/11/22 19:46:51;;;;;;;;;;;3.90;98.80;;;;;;5057447;28;19912;-91
2021/11/22 19:49:16;;;;;;;;;;;3.80;98.80;;;;;;5064081;28;20475;-95
2021/11/22 19:51:42;;;;;;;;;;;3.60;98.90;;;;;;5070313;28;19908;-91
2021/11/22 19:54:08;;;;;;;;;;;3.60;99.00;;;;;;5082569;28;19947;-92
2021/11/22 19:56:33;;;;;;;;;;;3.50;99.00;;;;;;5068915;28;19912;-94
2021/11/22 19:58:59;;;;;;;;;;;3.40;99.20;;;;;;5066096;28;19947;-95
2021/11/22 20:01:25;;;;;;;;;;;3.20;99.20;;;;;;5076646;28;19908;-93
2021/11/22 20:03:51;;;;;;;;;;;3.20;99.40;;;;;;5079508;28;19987;-94
2021/11/22 20:06:17;;;;;;;;;;;3.10;99.50;;;;;;5062155;28;19955;-96
2021/11/22 20:08:42;;;;;;;;;;;3.10;99.60;;;;;;5075763;28;20401;-93
2021/11/22 20:11:11;;;;;;;;;;;3.00;99.70;;;;;;5065854;28;19931;-96
2021/11/22 20:13:47;;;;;;;;;;;3.00;99.80;;;;;;5065897;28;19919;-95
2021/11/22 20:16:15;;;;;;;;;;;3.00;99.80;;;;;;5046510;28;19913;-96
2021/11/22 20:18:40;;;;;;;;;;;2.90;99.80;;;;;;5078767;28;19908;-96
2021/11/22 20:21:06;;;;;;;;;;;2.90;99.80;;;;;;5071789;28;19908;-96
2021/11/22 20:23:32;;;;;;;;;;;2.90;99.80;;;;;;5078864;28;19908;-95
2021/11/22 20:25:58;;;;;;;;;;;2.80;99.90;;;;;;5066774;28;19959;-96
2021/11/22 20:28:23;;;;;;;;;;;2.80;99.90;;;;;;5065696;28;19909;-96
2021/11/22 20:30:49;;;;;;;;;;;2.80;99.90;;;;;;5072393;28;21088;-96
2021/11/22 20:33:15;;;;;;;;;;;2.80;99.90;;;;;;5079935;28;20364;-96
2021/11/22 20:35:40;;;;;;;;;;;2.80;99.90;;;;;;5084200;28;20014;-96
2021/11/22 20:38:07;;;;;;;;;;;2.80;99.90;;;;;;5086204;28;19953;-95
2021/11/22 20:40:33;;;;;;;;;;;2.80;99.90;;;;;;5082349;28;20323;-96
2021/11/22 20:48:53;;;;;;;;;;;2.70;98.60;;;;;;5073994;28;19925;-96
